Time;durP1;ratioP1;P1;durP2;ratioP2;P2;SDS_P1;SDS_P2;PMS_P1;PMS_P2;Temp;Humidity;BMP_temperature;BMP_pressure;BME280_temperature;BME280_humidity;BME280_pressure;Samples;Min_cycle;Max_cycle;Signal;HPM_P1;HPM_P2
2023/05/01 00:00:25;;;;;;;15.03;9.27;;;;;;;12.44;86.09;94608.44;5078084;28;20197;-87
2023/05/01 00:02:53;;;;;;;12.80;8.60;;;;;;;12.33;86.36;94609.25;5077078;28;20209;-86
2023/05/01 00:05:19;;;;;;;11.07;8.30;;;;;;;12.37;85.94;94607.78;5077479;28;20223;-87
2023/05/01 00:07:46;;;;;;;12.63;8.90;;;;;;;12.43;86.22;94619.91;5078026;28;20246;-87
2023/05/01 00:10:13;;;;;;;15.77;8.60;;;;;;;12.41;86.15;94611.50;5077949;28;20201;-87
2023/05/01 00:12:40;;;;;;;17.73;8.40;;;;;;;12.40;86.17;94614.34;5077992;28;20621;-88
2023/05/01 00:15:10;;;;;;;12.70;8.77;;;;;;;12.35;86.61;94612.44;5077832;28;20204;-87
2023/05/01 00:17:37;;;;;;;11.40;8.63;;;;;;;12.30;86.72;94607.13;5078425;28;20255;-87
2023/05/01 00:20:05;;;;;;;11.57;8.63;;;;;;;12.08;87.26;94605.34;5077954;28;20201;-87
2023/05/01 00:22:31;;;;;;;13.13;9.20;;;;;;;11.90;88.80;94604.44;5069463;28;20313;-88
2023/05/01 00:24:58;;;;;;;13.13;9.53;;;;;;;11.88;89.69;94603.88;5075653;28;20626;-88
2023/05/01 00:27:26;;;;;;;11.23;8.90;;;;;;;11.83;90.19;94600.38;5075484;28;21734;-87
2023/05/01 00:29:52;;;;;;;13.83;9.33;;;;;;;11.88;90.39;94610.91;5072130;28;20209;-87
2023/05/01 00:32:21;;;;;;;12.50;9.73;;;;;;;11.85;90.95;94612.16;5071058;28;20197;-88
2023/05/01 00:34:48;;;;;;;11.47;8.13;;;;;;;11.83;91.03;94616.00;5072441;28;20206;-88
2023/05/01 00:37:16;;;;;;;11.23;8.43;;;;;;;11.73;91.63;94616.53;5073447;28;20197;-87
2023/05/01 00:39:43;;;;;;;12.03;8.57;;;;;;;11.70;92.45;94617.00;5072901;28;20232;-85
2023/05/01 00:42:10;;;;;;;14.10;8.60;;;;;;;11.73;92.34;94618.34;5073571;28;20209;-84
2023/05/01 00:44:37;;;;;;;11.50;8.30;;;;;;;11.74;92.37;94612.94;5074467;28;20236;-85
2023/05/01 00:47:03;;;;;;;13.27;8.50;;;;;;;11.78;92.11;94615.84;5074146;28;20278;-85
2023/05/01 00:49:32;;;;;;;12.67;8.20;;;;;;;11.84;92.37;94630.59;5073778;28;20633;-85
2023/05/01 00:51:59;;;;;;;10.53;8.60;;;;;;;11.79;92.65;94635.69;5069693;28;20217;-84
2023/05/01 00:54:27;;;;;;;11.13;8.70;;;;;;;11.44;93.59;94588.75;5073910;28;20206;-85
2023/05/01 00:56:54;;;;;;;9.87;7.80;;;;;;;11.72;93.73;94627.97;5073862;28;20239;-85
2023/05/01 00:59:21;;;;;;;11.87;8.57;;;;;;;11.62;93.97;94621.72;5073459;28;20271;-85
2023/05/01 01:01:48;;;;;;;10.47;8.43;;;;;;;11.64;94.68;94633.47;5073184;28;20194;-85
2023/05/01 01:04:15;;;;;;;11.23;9.07;;;;;;;11.65;93.92;94642.09;5074155;28;20193;-85
2023/05/01 01:06:52;;;;;;;11.00;8.67;;;;;;;11.55;93.59;94634.03;5072520;28;20252;-85
2023/05/01 01:09:28;;;;;;;13.57;9.30;;;;;;;11.52;93.55;94631.88;5070769;28;20199;-83
2023/05/01 01:12:06;;;;;;;10.73;9.37;;;;;;;11.53;93.34;94647.28;5070555;28;20266;-84
2023/05/01 01:14:39;;;;;;;14.70;9.70;;;;;;;11.53;93.83;94643.88;5071578;28;20193;-85
2023/05/01 01:17:16;;;;;;;12.43;9.93;;;;;;;11.46;94.24;94646.56;5071468;28;20647;-84
2023/05/01 01:20:11;;;;;;;12.87;9.40;;;;;;;11.44;94.52;94643.41;5068170;28;20205;-84
2023/05/01 01:22:43;;;;;;;17.63;9.90;;;;;;;11.34;95.13;94632.75;5067466;28;20252;-86
2023/05/01 01:25:49;;;;;;;14.07;9.17;;;;;;;11.38;94.38;94639.09;5068624;28;20328;-84
2023/05/01 01:28:42;;;;;;;13.50;9.37;;;;;;;11.30;95.26;94658.44;5068076;28;20185;-83
2023/05/01 01:31:17;;;;;;;16.47;9.83;;;;;;;11.23;96.19;94655.13;5067044;28;20201;-86
2023/05/01 01:34:04;;;;;;;12.33;9.67;;;;;;;11.22;96.76;94656.16;5069824;28;20575;-86
2023/05/01 01:36:40;;;;;;;14.70;9.77;;;;;;;11.12;96.60;94640.25;5068620;28;20204;-86
2023/05/01 01:39:13;;;;;;;25.27;17.97;;;;;;;11.21;96.06;94661.56;5067314;28;20190;-86
2023/05/01 01:41:41;;;;;;;22.60;15.37;;;;;;;11.15;96.32;94649.44;5066536;28;20556;-86
2023/05/01 01:44:19;;;;;;;15.63;11.87;;;;;;;11.15;96.44;94650.22;5070694;28;20197;-86
2023/05/01 01:46:48;;;;;;;19.27;11.67;;;;;;;11.06;96.70;94646.34;5066304;28;20233;-78
2023/05/01 01:49:21;;;;;;;18.50;13.10;;;;;;;11.05;97.45;94657.78;5065266;28;20217;-78
2023/05/01 01:51:50;;;;;;;19.20;13.70;;;;;;;11.07;97.66;94658.34;5063837;28;20263;-79
2023/05/01 01:54:23;;;;;;;20.67;14.70;;;;;;;11.00;97.23;94654.22;5067023;28;20205;-78
2023/05/01 01:56:51;;;;;;;21.43;15.87;;;;;;;10.93;97.50;94643.13;5065265;28;20200;-78
2023/05/01 01:59:20;;;;;;;20.93;14.80;;;;;;;10.89;97.37;94639.38;5064488;28;20213;-77
2023/05/01 02:01:50;;;;;;;25.00;17.53;;;;;;;10.87;97.64;94639.59;5063029;28;20591;-78
2023/05/01 02:04:19;;;;;;;28.20;19.97;;;;;;;10.83;97.79;94635.84;5066971;28;20201;-78
2023/05/01 02:06:47;;;;;;;27.07;20.33;;;;;;;10.85;97.75;94641.63;5065060;28;20687;-78
2023/05/01 02:09:19;;;;;;;25.87;17.23;;;;;;;10.78;98.27;94636.53;5066957;28;20189;-78
2023/05/01 02:11:46;;;;;;;26.93;17.53;;;;;;;10.65;98.69;94636.66;5063964;28;20302;-78
2023/05/01 02:14:15;;;;;;;26.27;19.27;;;;;;;10.68;98.36;94641.44;5067450;28;20281;-78
2023/05/01 02:16:43;;;;;;;24.70;17.60;;;;;;;10.56;99.41;94637.97;5064374;28;20204;-78
2023/05/01 02:19:11;;;;;;;26.90;17.80;;;;;;;10.45;99.60;94622.31;5066560;28;20216;-80
2023/05/01 02:21:40;;;;;;;24.00;16.70;;;;;;;10.51;99.94;94627.44;5067132;28;20205;-80
2023/05/01 02:24:09;;;;;;;24.20;17.37;;;;;;;10.46;100.00;94629.09;5065960;28;20205;-79
2023/05/01 02:26:41;;;;;;;26.07;16.63;;;;;;;10.40;100.00;94628.16;5064214;28;20221;-79
2023/05/01 02:29:08;;;;;;;23.63;17.03;;;;;;;10.40;100.00;94629.97;5063270;28;20198;-80
2023/05/01 02:31:35;;;;;;;22.20;17.10;;;;;;;10.50;100.00;94638.06;5066086;28;20208;-79
2023/05/01 02:34:02;;;;;;;26.57;16.40;;;;;;;10.52;100.00;94643.84;5068744;28;20208;-79
2023/05/01 02:36:30;;;;;;;20.83;15.03;;;;;;;10.52;100.00;94643.84;5066335;28;20205;-79
2023/05/01 02:38:59;;;;;;;23.53;15.63;;;;;;;10.51;100.00;94635.22;5066228;28;20233;-79
2023/05/01 02:41:27;;;;;;;26.40;15.93;;;;;;;10.48;100.00;94640.06;5065803;28;20201;-79
2023/05/01 02:44:00;;;;;;;23.97;16.10;;;;;;;10.41;100.00;94647.16;5066911;28;20679;-80
2023/05/01 02:46:28;;;;;;;27.83;16.47;;;;;;;10.37;100.00;94648.59;5066300;28;20232;-80
2023/05/01 02:48:56;;;;;;;23.37;15.87;;;;;;;10.35;100.00;94646.22;5066275;28;20205;-80
2023/05/01 02:51:24;;;;;;;29.33;17.83;;;;;;;10.31;100.00;94645.06;5066901;28;20209;-80
2023/05/01 02:53:51;;;;;;;23.03;15.60;;;;;;;10.27;100.00;94643.13;5066998;28;20197;-80
2023/05/01 02:56:19;;;;;;;26.97;16.40;;;;;;;10.31;100.00;94646.84;5065135;28;20201;-79
2023/05/01 02:58:48;;;;;;;29.27;17.47;;;;;;;10.20;100.00;94641.38;5065746;28;20263;-85
2023/05/01 03:01:15;;;;;;;25.57;16.20;;;;;;;10.18;100.00;94648.59;5068622;28;20629;-85
2023/05/01 03:03:42;;;;;;;21.63;16.23;;;;;;;10.21;100.00;94650.78;5069535;28;20201;-86
2023/05/01 03:06:08;;;;;;;28.00;16.80;;;;;;;10.14;100.00;94647.44;5072278;28;20220;-86
2023/05/01 03:08:36;;;;;;;26.43;16.33;;;;;;;10.14;100.00;94639.63;5072372;28;20197;-86
2023/05/01 03:11:07;;;;;;;20.57;13.00;;;;;;;10.17;100.00;94638.41;5075665;28;20231;-86
2023/05/01 03:13:36;;;;;;;22.37;14.73;;;;;;;10.10;100.00;94646.22;5071027;28;20197;-86
2023/05/01 03:16:04;;;;;;;23.83;15.37;;;;;;;10.06;100.00;94647.69;5067545;28;20208;-86
2023/05/01 03:18:31;;;;;;;24.03;15.70;;;;;;;10.08;100.00;94660.44;5068498;28;20236;-85
2023/05/01 03:20:58;;;;;;;23.77;15.30;;;;;;;10.05;100.00;94645.28;5071388;28;20201;-86
2023/05/01 03:23:26;;;;;;;22.00;15.33;;;;;;;9.99;100.00;94636.56;5069453;28;20671;-85
2023/05/01 03:25:54;;;;;;;25.13;14.87;;;;;;;10.08;100.00;94648.25;5068538;28;20681;-83
2023/05/01 03:28:22;;;;;;;20.27;14.07;;;;;;;9.99;100.00;94652.13;5071403;28;20247;-85
2023/05/01 03:30:53;;;;;;;17.77;13.67;;;;;;;9.97;100.00;94659.34;5072661;28;20694;-84
2023/05/01 03:33:20;;;;;;;17.73;11.90;;;;;;;9.97;100.00;94659.34;5068921;28;20201;-85
2023/05/01 03:35:47;;;;;;;17.63;11.20;;;;;;;9.94;100.00;94662.38;5069130;28;20197;-84
2023/05/01 03:38:13;;;;;;;15.97;10.53;;;;;;;9.93;100.00;94659.97;5069062;28;20220;-84
2023/05/01 03:40:40;;;;;;;17.47;10.93;;;;;;;9.93;100.00;94675.53;5068275;28;20194;-87
2023/05/01 03:43:07;;;;;;;14.70;11.03;;;;;;;9.88;100.00;94673.59;5065847;28;20283;-84
2023/05/01 03:45:33;;;;;;;14.60;10.40;;;;;;;9.91;100.00;94674.97;5068853;28;20286;-84
2023/05/01 03:48:02;;;;;;;17.27;11.30;;;;;;;9.85;100.00;94676.63;5069753;28;20250;-87
2023/05/01 03:50:28;;;;;;;16.17;10.73;;;;;;;9.86;100.00;94680.00;5069939;28;20200;-86
2023/05/01 03:52:57;;;;;;;19.70;10.57;;;;;;;9.93;100.00;94686.72;5068105;28;20267;-89
2023/05/01 03:55:24;;;;;;;16.40;10.80;;;;;;;9.91;100.00;94693.16;5069352;28;20267;-87
2023/05/01 03:57:51;;;;;;;14.00;10.93;;;;;;;9.83;100.00;94678.66;5068876;28;20196;-86
2023/05/01 04:00:26;;;;;;;16.23;10.57;;;;;;;9.87;100.00;94692.00;5069171;28;20774;-88
2023/05/01 04:02:55;;;;;;;15.77;10.40;;;;;;;9.94;100.00;94696.13;5067870;28;20197;-89
2023/05/01 04:05:33;;;;;;;22.63;11.93;;;;;;;9.95;100.00;94702.09;5068739;28;20266;-90
2023/05/01 04:08:00;;;;;;;15.57;12.00;;;;;;;9.87;100.00;94676.44;5071931;28;20205;-91
2023/05/01 04:10:27;;;;;;;16.40;11.67;;;;;;;10.03;100.00;94694.03;5071164;28;20193;-80
2023/05/01 04:12:54;;;;;;;19.07;11.27;;;;;;;10.03;100.00;94696.63;5069113;28;20205;-79
2023/05/01 04:15:22;;;;;;;18.57;12.07;;;;;;;10.06;100.00;94698.81;5068140;28;20205;-79
2023/05/01 04:17:49;;;;;;;18.70;12.43;;;;;;;10.07;100.00;94698.59;5069464;28;20197;-79
2023/05/01 04:20:17;;;;;;;22.90;12.40;;;;;;;10.07;100.00;94700.41;5068607;28;20205;-78
2023/05/01 04:22:46;;;;;;;18.50;13.03;;;;;;;10.06;100.00;94696.22;5067783;28;20201;-78
2023/05/01 04:25:12;;;;;;;18.83;12.43;;;;;;;10.07;100.00;94703.78;5068678;28;20205;-78
2023/05/01 04:27:39;;;;;;;17.97;13.27;;;;;;;10.08;100.00;94697.59;5070550;28;20217;-79
2023/05/01 04:30:07;;;;;;;24.60;14.37;;;;;;;10.07;100.00;94701.19;5068877;28;20648;-80
2023/05/01 04:32:35;;;;;;;18.40;13.03;;;;;;;10.03;100.00;94704.44;5051469;28;20197;-80
2023/05/01 04:35:02;;;;;;;18.70;12.60;;;;;;;10.00;100.00;94695.28;5070410;28;20209;-80
2023/05/01 04:37:29;;;;;;;22.07;12.53;;;;;;;10.11;100.00;94701.56;5072044;28;20186;-79
2023/05/01 04:39:57;;;;;;;19.30;12.40;;;;;;;10.12;100.00;94700.56;5069467;28;20977;-77
2023/05/01 04:42:29;;;;;;;19.00;12.90;;;;;;;10.16;100.00;94701.72;5068020;28;20262;-77
2023/05/01 04:44:56;;;;;;;21.57;14.13;;;;;;;10.17;100.00;94704.13;5068691;28;20217;-79
2023/05/01 04:47:23;;;;;;;20.77;13.80;;;;;;;10.18;100.00;94707.53;5070490;28;20237;-77
2023/05/01 04:49:50;;;;;;;21.27;14.70;;;;;;;10.31;100.00;94711.78;5068360;28;20196;-77
2023/05/01 04:52:16;;;;;;;20.67;14.37;;;;;;;10.43;100.00;94704.88;5068440;28;20205;-77
2023/05/01 04:54:43;;;;;;;20.40;13.30;;;;;;;10.43;100.00;94708.28;5068860;28;20198;-78
2023/05/01 04:57:11;;;;;;;21.83;14.97;;;;;;;10.40;100.00;94690.53;5070073;28;20201;-78
2023/05/01 04:59:38;;;;;;;18.10;13.50;;;;;;;10.55;100.00;94714.34;5068665;28;20258;-78
2023/05/01 05:02:05;;;;;;;20.20;14.17;;;;;;;10.62;100.00;94717.66;5068811;28;20280;-78
2023/05/01 05:04:32;;;;;;;21.80;14.13;;;;;;;10.58;100.00;94706.13;5069984;28;20535;-79
2023/05/01 05:07:02;;;;;;;20.97;14.77;;;;;;;10.70;100.00;94716.59;5069298;28;20267;-85
2023/05/01 05:09:54;;;;;;;18.50;13.43;;;;;;;10.73;100.00;94718.75;5072168;28;20679;-86
2023/05/01 05:12:23;;;;;;;17.93;13.63;;;;;;;10.74;100.00;94721.13;5059280;28;20243;-85
2023/05/01 05:14:50;;;;;;;19.77;13.63;;;;;;;10.77;100.00;94725.91;5070937;28;20224;-85
2023/05/01 05:17:17;;;;;;;23.20;14.27;;;;;;;10.76;100.00;94732.09;5071351;28;20628;-85
2023/05/01 05:19:43;;;;;;;19.10;13.70;;;;;;;10.77;100.00;94740.69;5070644;28;20212;-85
2023/05/01 05:22:11;;;;;;;16.57;12.53;;;;;;;10.79;100.00;94736.88;5069752;28;20209;-85
2023/05/01 05:24:38;;;;;;;16.10;11.07;;;;;;;10.79;100.00;94741.31;5070986;28;20206;-88
2023/05/01 05:27:06;;;;;;;14.97;10.97;;;;;;;10.83;100.00;94732.03;5071837;28;20300;-86
2023/05/01 05:29:35;;;;;;;12.53;10.87;;;;;;;10.94;100.00;94743.53;5067561;28;20228;-85
2023/05/01 05:32:02;;;;;;;14.07;10.93;;;;;;;11.03;100.00;94742.19;5067125;28;20206;-84
2023/05/01 05:34:29;;;;;;;13.97;11.57;;;;;;;11.16;100.00;94752.47;5070589;28;20282;-84
2023/05/01 05:36:56;;;;;;;16.03;11.43;;;;;;;11.23;100.00;94747.97;5067943;28;20216;-84
2023/05/01 05:39:23;;;;;;;16.60;11.80;;;;;;;11.28;100.00;94756.69;5069585;28;20259;-85
2023/05/01 05:41:52;;;;;;;16.53;12.67;;;;;;;11.33;100.00;94758.66;5070672;28;20280;-83
2023/05/01 05:44:19;;;;;;;16.00;12.23;;;;;;;11.38;100.00;94759.59;5070844;28;20581;-83
2023/05/01 05:46:47;;;;;;;19.93;11.80;;;;;;;11.40;100.00;94764.56;5069267;28;20245;-84
2023/05/01 05:49:14;;;;;;;15.90;12.27;;;;;;;11.42;100.00;94762.53;5069842;28;20198;-87
2023/05/01 05:51:41;;;;;;;18.47;11.87;;;;;;;11.54;100.00;94760.00;5069635;28;20197;-85
2023/05/01 05:54:08;;;;;;;16.60;11.67;;;;;;;11.54;100.00;94763.41;5070545;28;20209;-84
2023/05/01 05:56:36;;;;;;;18.17;12.23;;;;;;;11.57;100.00;94764.75;5069792;28;20258;-84
2023/05/01 05:59:05;;;;;;;19.00;12.20;;;;;;;11.68;100.00;94761.41;5067628;28;20708;-84
2023/05/01 06:01:32;;;;;;;20.10;12.87;;;;;;;11.72;100.00;94755.53;5069753;28;20205;-84
2023/05/01 06:04:00;;;;;;;21.77;12.57;;;;;;;11.80;100.00;94764.88;5070892;28;20204;-85
2023/05/01 06:06:27;;;;;;;21.40;12.77;;;;;;;11.85;100.00;94767.59;5069766;28;20217;-84
2023/05/01 06:08:53;;;;;;;15.73;12.87;;;;;;;11.97;100.00;94767.63;5070389;28;20221;-83
2023/05/01 06:11:21;;;;;;;24.30;13.53;;;;;;;11.97;100.00;94772.81;5070810;28;20242;-82
2023/05/01 06:13:48;;;;;;;15.60;12.40;;;;;;;11.94;100.00;94767.06;5070363;28;20225;-82
2023/05/01 06:16:15;;;;;;;18.40;11.73;;;;;;;11.97;100.00;94772.81;5069715;28;20659;-84
2023/05/01 06:18:42;;;;;;;17.20;12.37;;;;;;;12.09;100.00;94777.03;5068728;28;20680;-84
2023/05/01 06:21:10;;;;;;;18.67;12.97;;;;;;;12.16;100.00;94787.34;5069614;28;20205;-84
2023/05/01 06:23:37;;;;;;;18.13;13.37;;;;;;;12.19;99.70;94772.06;5069688;28;20193;-86
2023/05/01 06:26:04;;;;;;;19.23;12.50;;;;;;;12.25;99.87;94775.59;5070327;28;20201;-86
2023/05/01 06:28:31;;;;;;;18.57;13.27;;;;;;;12.27;100.00;94773.53;5070264;28;20218;-85
2023/05/01 06:30:57;;;;;;;18.13;12.57;;;;;;;12.33;99.99;94778.66;5070207;28;20760;-86
2023/05/01 06:33:24;;;;;;;15.00;12.13;;;;;;;12.42;99.85;94766.88;5071101;28;20784;-83
2023/05/01 06:35:53;;;;;;;18.33;11.73;;;;;;;12.50;99.96;94766.53;5069508;28;20616;-84
2023/05/01 06:38:21;;;;;;;19.10;13.40;;;;;;;12.63;99.58;94764.72;5069476;28;20221;-87
2023/05/01 06:40:49;;;;;;;19.90;13.13;;;;;;;12.80;99.00;94773.44;5070318;28;20524;-86
2023/05/01 06:43:16;;;;;;;16.33;13.30;;;;;;;12.89;99.02;94778.09;5069046;28;20197;-86
2023/05/01 06:45:42;;;;;;;17.17;11.93;;;;;;;12.99;98.61;94773.06;5069280;28;20243;-83
2023/05/01 06:48:10;;;;;;;16.50;12.10;;;;;;;13.04;98.38;94759.38;5068825;28;20229;-86
2023/05/01 06:50:37;;;;;;;16.40;11.63;;;;;;;13.13;97.26;94776.25;5070309;28;20599;-84
2023/05/01 06:53:04;;;;;;;17.50;11.63;;;;;;;13.16;96.94;94772.41;5069639;28;20212;-85
2023/05/01 06:55:32;;;;;;;17.03;12.00;;;;;;;13.35;95.81;94781.66;5069384;28;20648;-85
2023/05/01 06:57:59;;;;;;;14.23;11.57;;;;;;;13.41;95.42;94776.31;5069509;28;21174;-86
2023/05/01 07:00:26;;;;;;;17.87;11.60;;;;;;;13.49;94.82;94780.38;5068926;28;20585;-87
2023/05/01 07:02:53;;;;;;;15.63;11.37;;;;;;;13.44;94.92;94767.22;5067707;28;20209;-84
2023/05/01 07:05:20;;;;;;;13.80;11.47;;;;;;;13.57;94.12;94786.00;5069046;28;20197;-84
2023/05/01 07:07:48;;;;;;;17.67;11.60;;;;;;;13.61;93.77;94779.31;5068970;28;20232;-83
2023/05/01 07:10:15;;;;;;;15.63;11.77;;;;;;;13.49;92.79;94757.66;5067941;28;20198;-84
2023/05/01 07:12:43;;;;;;;15.60;11.00;;;;;;;13.70;92.76;94777.13;5067680;28;20209;-84
2023/05/01 07:15:10;;;;;;;19.33;11.50;;;;;;;13.82;91.33;94790.13;5064159;28;20197;-86
2023/05/01 07:17:37;;;;;;;13.70;10.93;;;;;;;13.92;90.10;94785.06;5068315;28;20577;-85
2023/05/01 07:20:05;;;;;;;17.67;12.17;;;;;;;13.93;89.74;94795.31;5067708;28;20209;-85
2023/05/01 07:22:31;;;;;;;18.60;11.83;;;;;;;13.98;89.84;94787.53;5068246;28;20288;-86
2023/05/01 07:25:00;;;;;;;18.00;12.43;;;;;;;13.97;87.44;94774.69;5067338;28;20314;-84
2023/05/01 07:27:27;;;;;;;21.03;12.07;;;;;;;14.08;87.16;94800.75;5068407;28;21317;-84
2023/05/01 07:29:56;;;;;;;18.97;12.73;;;;;;;14.13;87.10;94794.84;5068197;28;20212;-85
2023/05/01 07:32:22;;;;;;;16.03;11.70;;;;;;;14.21;86.74;94797.06;5069379;28;20202;-85
2023/05/01 07:34:49;;;;;;;14.47;10.00;;;;;;;14.36;86.19;94801.78;5067248;28;20213;-86
2023/05/01 07:37:17;;;;;;;12.57;9.40;;;;;;;14.28;86.65;94792.50;5068140;28;20193;-85
2023/05/01 07:39:44;;;;;;;13.00;9.30;;;;;;;14.36;86.61;94799.16;5066941;28;20232;-85
2023/05/01 07:42:11;;;;;;;11.70;8.90;;;;;;;14.46;86.35;94792.28;5069770;28;20204;-86
2023/05/01 07:44:38;;;;;;;19.77;9.60;;;;;;;14.60;85.29;94790.91;5071122;28;20193;-86
2023/05/01 07:47:07;;;;;;;11.20;9.03;;;;;;;14.73;85.48;94787.19;5071580;28;20220;-85
2023/05/01 07:49:37;;;;;;;16.93;9.30;;;;;;;14.87;84.66;94792.88;5071112;28;20213;-84
2023/05/01 07:52:06;;;;;;;13.63;9.27;;;;;;;14.96;83.99;94794.84;5072357;28;20227;-84
2023/05/01 07:54:33;;;;;;;13.93;9.40;;;;;;;15.01;83.94;94786.25;5072770;28;20284;-84
2023/05/01 07:57:00;;;;;;;15.27;8.83;;;;;;;15.14;79.99;94797.19;5071772;28;20205;-85
2023/05/01 07:59:27;;;;;;;12.93;8.87;;;;;;;15.17;80.22;94790.66;5071193;28;20268;-84
2023/05/01 08:01:54;;;;;;;12.80;8.87;;;;;;;15.43;84.57;94786.53;5069689;28;20202;-84
2023/05/01 08:04:22;;;;;;;11.87;8.80;;;;;;;15.54;80.47;94794.31;5072495;28;20208;-85
2023/05/01 08:06:49;;;;;;;13.40;9.27;;;;;;;15.62;79.18;94793.06;5069764;28;20200;-84
2023/05/01 08:09:16;;;;;;;18.00;8.63;;;;;;;15.69;78.69;94783.19;5068046;28;20228;-89
2023/05/01 08:11:43;;;;;;;15.10;7.97;;;;;;;15.78;78.22;94787.75;5070360;28;20706;-82
2023/05/01 08:14:10;;;;;;;9.50;6.50;;;;;;;15.92;75.11;94787.34;5077421;28;20201;-86
2023/05/01 08:16:37;;;;;;;9.37;6.73;;;;;;;16.08;76.79;94794.31;5077944;28;20220;-88
2023/05/01 08:19:04;;;;;;;20.30;8.23;;;;;;;16.11;74.11;94788.56;5078175;28;20209;-88
2023/05/01 08:21:32;;;;;;;12.43;7.53;;;;;;;16.17;75.41;94791.00;5074782;28;20201;-88
2023/05/01 08:24:02;;;;;;;7.50;6.77;;;;;;;16.13;72.68;94791.78;5070096;28;20212;-85
2023/05/01 08:26:30;;;;;;;10.63;7.20;;;;;;;16.22;73.93;94792.91;5090542;28;20205;-85
2023/05/01 08:28:57;;;;;;;12.07;7.67;;;;;;;16.35;73.51;94795.09;5085566;28;20411;-86
2023/05/01 08:31:24;;;;;;;8.00;6.77;;;;;;;16.50;72.83;94783.94;5080854;28;20205;-90
2023/05/01 08:33:51;;;;;;;13.93;6.80;;;;;;;16.64;70.42;94793.78;5072997;28;20208;-85
2023/05/01 08:36:18;;;;;;;10.07;6.80;;;;;;;16.69;72.23;94790.41;5078638;28;20208;-85
2023/05/01 08:38:46;;;;;;;9.87;6.57;;;;;;;16.89;69.69;94795.78;5071157;28;20197;-89
2023/05/01 08:41:21;;;;;;;7.77;5.80;;;;;;;16.93;71.62;94786.38;5073391;28;20655;-89
2023/05/01 08:44:05;;;;;;;13.43;5.70;;;;;;;17.18;77.99;94769.94;5074699;28;20200;-86
2023/05/01 08:46:44;;;;;;;9.70;5.80;;;;;;;17.36;66.00;94777.38;5071250;28;20201;-87
2023/05/01 08:49:14;;;;;;;9.17;5.20;;;;;;;17.42;64.24;94765.84;5070238;28;20201;-89
2023/05/01 08:51:42;;;;;;;10.50;5.20;;;;;;;17.57;61.93;94787.75;5071582;28;20197;-89
2023/05/01 08:54:12;;;;;;;5.25;4.55;;;;;;;17.62;59.01;94792.25;5072032;28;20217;-88
2023/05/01 08:56:39;;;;;;;8.80;5.20;;;;;;;17.63;59.16;94785.94;5069358;28;20204;-88
2023/05/01 08:59:09;;;;;;;11.45;5.35;;;;;;;17.71;60.37;94780.19;5072252;28;20197;-89
2023/05/01 09:01:38;;;;;;;6.78;5.30;;;;;;;17.73;61.88;94775.44;5070244;28;20235;-90
2023/05/01 09:04:07;;;;;;;7.27;5.17;;;;;;;17.84;62.01;94777.03;5074135;28;20200;-89
2023/05/01 09:06:35;;;;;;;9.23;5.28;;;;;;;17.94;61.17;94782.34;5070529;28;20205;-88
2023/05/01 09:09:02;;;;;;;11.23;5.60;;;;;;;18.05;59.97;94778.69;5070547;28;20217;-87
2023/05/01 09:11:30;;;;;;;6.45;5.15;;;;;;;18.20;60.65;94788.44;5072430;28;20747;-88
2023/05/01 09:13:57;;;;;;;5.97;4.65;;;;;;;18.26;59.26;94773.44;5071537;28;20213;-90
2023/05/01 09:16:24;;;;;;;6.68;4.15;;;;;;;18.46;61.81;94790.03;5071902;28;20201;-89
2023/05/01 09:18:51;;;;;;;10.30;5.00;;;;;;;18.68;60.38;94782.69;5071478;28;20281;-89
2023/05/01 09:21:18;;;;;;;6.45;4.80;;;;;;;18.85;59.83;94778.97;5072389;28;20221;-88
2023/05/01 09:23:45;;;;;;;7.25;4.60;;;;;;;19.29;66.54;94787.81;5071893;28;20208;-88
2023/05/01 09:26:12;;;;;;;7.38;3.53;;;;;;;19.55;55.95;94791.19;5072100;28;20201;-88
2023/05/01 09:28:45;;;;;;;3.83;3.33;;;;;;;19.60;54.41;94793.81;5070247;28;20699;-88
2023/05/01 09:31:22;;;;;;;4.97;3.40;;;;;;;19.72;53.99;94797.72;5069277;28;20547;-85
2023/05/01 09:33:56;;;;;;;5.13;3.55;;;;;;;19.84;54.56;94794.75;5069069;28;20239;-81
2023/05/01 09:36:24;;;;;;;6.28;3.63;;;;;;;19.94;54.10;94793.94;5068595;28;20299;-81
2023/05/01 09:38:51;;;;;;;5.35;3.38;;;;;;;19.99;50.59;94791.25;5069575;28;20292;-80
2023/05/01 09:41:19;;;;;;;5.57;3.53;;;;;;;20.08;51.09;94790.41;5069847;28;20642;-81
2023/05/01 09:43:51;;;;;;;6.18;3.70;;;;;;;20.22;52.28;94788.72;5069012;28;20284;-80
2023/05/01 09:46:19;;;;;;;9.65;4.18;;;;;;;20.24;51.77;94791.09;5069261;28;20700;-81
2023/05/01 09:48:57;;;;;;;7.15;3.80;;;;;;;20.30;52.92;94790.81;5069166;28;20308;-80
2023/05/01 09:51:26;;;;;;;5.97;4.25;;;;;;;20.41;53.48;94794.16;5068938;28;20208;-82
2023/05/01 09:53:55;;;;;;;6.03;4.30;;;;;;;20.55;53.45;94795.09;5069628;28;20282;-81
2023/05/01 09:56:22;;;;;;;4.10;3.72;;;;;;;20.74;51.96;94785.47;5066610;28;20200;-76
2023/05/01 09:58:52;;;;;;;6.07;4.20;;;;;;;20.86;50.40;94785.09;5064034;28;20680;-76
2023/05/01 10:01:19;;;;;;;6.57;4.00;;;;;;;21.06;50.19;94779.59;5067626;28;20194;-83
2023/05/01 10:03:55;;;;;;;5.47;3.70;;;;;;;21.17;50.63;94780.31;5069362;28;20209;-81
2023/05/01 10:06:28;;;;;;;6.18;3.80;;;;;;;21.34;49.26;94776.16;5069524;28;20197;-82
2023/05/01 10:08:55;;;;;;;5.10;3.53;;;;;;;21.51;46.30;94786.28;5069042;28;20319;-81
2023/05/01 10:11:22;;;;;;;4.97;3.20;;;;;;;21.58;45.80;94778.00;5070450;28;20216;-82
2023/05/01 10:14:09;;;;;;;4.40;3.40;;;;;;;21.76;46.45;94785.97;5070748;28;20566;-81
2023/05/01 10:16:37;;;;;;;4.60;3.63;;;;;;;21.89;45.47;94781.88;5069285;28;20655;-82
2023/05/01 10:19:04;;;;;;;3.67;2.85;;;;;;;21.92;44.95;94778.66;5070965;28;20618;-82
2023/05/01 10:21:32;;;;;;;5.07;3.28;;;;;;;21.62;44.47;94782.44;5067812;28;20953;-82
2023/05/01 10:24:01;;;;;;;4.13;3.00;;;;;;;21.61;45.71;94772.16;5072363;28;20255;-82
2023/05/01 10:26:29;;;;;;;6.38;3.47;;;;;;;21.66;44.91;94777.38;5071006;28;20221;-82
2023/05/01 10:28:58;;;;;;;8.00;3.63;;;;;;;21.68;44.25;94776.00;5070271;28;20228;-82
2023/05/01 10:31:27;;;;;;;4.13;3.20;;;;;;;21.49;44.99;94773.34;5071554;28;20213;-82
2023/05/01 10:33:55;;;;;;;5.45;3.58;;;;;;;21.46;44.88;94773.91;5070929;28;20246;-82
2023/05/01 10:36:27;;;;;;;3.60;3.30;;;;;;;21.61;46.33;94769.50;5069144;28;20213;-81
2023/05/01 10:38:54;;;;;;;5.78;3.42;;;;;;;22.00;47.79;94773.50;5069790;28;20197;-83
2023/05/01 10:41:58;;;;;;;4.35;3.25;;;;;;;22.32;45.96;94777.28;5070574;28;20197;-81
2023/05/01 10:44:26;;;;;;;3.83;2.97;;;;;;;22.32;44.75;94778.06;5069561;28;20205;-82
2023/05/01 10:46:54;;;;;;;3.45;3.05;;;;;;;22.24;45.48;94775.28;5067427;28;20240;-82
2023/05/01 10:49:22;;;;;;;7.47;2.88;;;;;;;22.23;45.68;94774.50;5066853;28;20205;-83
2023/05/01 10:51:59;;;;;;;3.88;3.15;;;;;;;22.26;45.76;94770.47;5067574;28;20197;-83
2023/05/01 10:54:27;;;;;;;5.03;2.80;;;;;;;22.04;44.38;94779.81;5069724;28;20205;-82
2023/05/01 10:56:55;;;;;;;5.82;2.55;;;;;;;21.89;43.90;94776.56;5068510;28;20209;-82
2023/05/01 10:59:22;;;;;;;3.63;2.47;;;;;;;21.51;43.22;94773.06;5067748;28;20254;-84
2023/05/01 11:01:51;;;;;;;3.45;2.60;;;;;;;21.58;42.69;94778.00;5065821;28;20279;-84
2023/05/01 11:04:52;;;;;;;5.72;2.75;;;;;;;21.64;43.28;94771.59;5069157;28;20671;-85
2023/05/01 11:07:23;;;;;;;2.75;2.50;;;;;;;21.96;42.40;94761.91;5068095;28;20200;-86
2023/05/01 11:09:56;;;;;;;3.85;2.50;;;;;;;22.48;41.59;94776.00;5066823;28;20774;-85
2023/05/01 11:12:49;;;;;;;8.70;2.70;;;;;;;22.70;40.72;94775.41;5067515;28;20212;-85
2023/05/01 11:15:26;;;;;;;3.20;2.70;;;;;;;22.63;40.80;94772.31;5065408;28;20898;-83
2023/05/01 11:17:54;;;;;;;3.25;2.78;;;;;;;22.79;41.57;94782.41;5068786;28;20197;-86
2023/05/01 11:20:56;;;;;;;3.40;2.65;;;;;;;23.05;40.48;94780.88;5068229;28;20577;-86
2023/05/01 11:23:24;;;;;;;5.60;2.40;;;;;;;23.22;41.23;94769.72;5067292;28;20201;-86
2023/05/01 11:26:02;;;;;;;4.07;2.70;;;;;;;23.58;39.81;94778.56;5067724;28;20193;-84
2023/05/01 11:28:31;;;;;;;3.13;2.70;;;;;;;23.50;38.90;94787.22;5067604;28;20193;-85
2023/05/01 11:30:57;;;;;;;4.05;2.83;;;;;;;23.16;38.87;94784.13;5069139;28;20205;-86